Hierro Island, Spain
Current Conditions -  °F | °C
As of 6:00 PM on Friday 24 Oct 2014 (Local Time) from GCHI Reporting Station
Clear Clear  
Wind Chill: 81°   Ceiling: Unl
Heat Index: 81°   Visibility: 6mi
Dew Point: 59°   Wind: 12mph
Humidity: 48%   Direction: 190°S
Pressure: 29.97"   Gusts: NA
Location:  27.82°N, 17.88°W
Report Text: GCHI 241700Z 19010KT CAVOK 27/15 Q1015
Loading
Personal Weather Stations






























Interactive Weather Map
Tropical Storm Tracking
New forecast layout! Learn more

10-Day Weather Forecast

Advertisements
Track Severe Weather on mobile